KLOZ/LOZ METAR and TAF weather

Enter ICAO airport designator
Station Type Date Time Source
KLOZ METAR 2020/09/18 06:53 UTC NOAA

KLOZ 180653Z AUTO 03006KT 10SM BKN012 18/16 A2999 RMK AO2 SLP144 T01780161


Station Type Date Time Source
KLOZ Decoded METAR 2020/09/18 06:53 UTC NOAA

LONDON-CORBIN AIRPORT, KY, United States (KLOZ) 37-05N 084-04W 362M
Sep 18, 2020 - 02:53 AM EDT / 2020.09.18 0653 UTC
Wind: from the NNE (030 degrees) at 7 MPH (6 KT):0
Visibility: 10 mile(s):0
Sky conditions: mostly cloudy
Temperature: 64.0 F (17.8 C)
Dew Point: 61.0 F (16.1 C)
Relative Humidity: 89%
Pressure (altimeter): 29.99 in. Hg (1015 hPa)
ob: KLOZ 180653Z AUTO 03006KT 10SM BKN012 18/16 A2999 RMK AO2 SLP144 T01780161
cycle: 7

Station Type Date Time Source
KLOZ TAF 2020/09/18 07:57 UTC NOAA

TAF
AMD KLOZ 180654Z 1807/1906 02005KT P6SM SCT100
TEMPO 1808/1812 SCT015 BKN025
FM181200 01006KT P6SM BKN100
FM181700 03010KT P6SM BKN090
FM182200 02009KT P6SM SCT200

Example: see airport list